sensor_id;sensor_type;location;lat;lon;timestamp;P1;durP1;ratioP1;P2;durP2;ratioP2
6517;SDS011;3292;48.944;9.240;2022-12-29T00:00:24;2.87;;;2.57;;
6517;SDS011;3292;48.944;9.240;2022-12-29T00:02:51;3.30;;;3.00;;
6517;SDS011;3292;48.944;9.240;2022-12-29T00:05:18;2.80;;;2.60;;
6517;SDS011;3292;48.944;9.240;2022-12-29T00:07:50;3.03;;;2.60;;
6517;SDS011;3292;48.944;9.240;2022-12-29T00:10:18;3.17;;;2.70;;
6517;SDS011;3292;48.944;9.240;2022-12-29T00:12:49;3.53;;;2.60;;
6517;SDS011;3292;48.944;9.240;2022-12-29T00:15:36;2.97;;;2.40;;
6517;SDS011;3292;48.944;9.240;2022-12-29T00:18:04;2.57;;;2.37;;
6517;SDS011;3292;48.944;9.240;2022-12-29T00:20:36;2.50;;;2.30;;
6517;SDS011;3292;48.944;9.240;2022-12-29T00:23:21;4.47;;;2.70;;
6517;SDS011;3292;48.944;9.240;2022-12-29T00:26:14;2.90;;;2.60;;
6517;SDS011;3292;48.944;9.240;2022-12-29T00:29:00;2.50;;;2.30;;
6517;SDS011;3292;48.944;9.240;2022-12-29T00:31:47;3.03;;;2.50;;
6517;SDS011;3292;48.944;9.240;2022-12-29T00:34:31;3.50;;;2.27;;
6517;SDS011;3292;48.944;9.240;2022-12-29T00:37:17;2.53;;;2.13;;
6517;SDS011;3292;48.944;9.240;2022-12-29T00:40:06;2.47;;;2.27;;
6517;SDS011;3292;48.944;9.240;2022-12-29T00:42:52;2.13;;;2.00;;
6517;SDS011;3292;48.944;9.240;2022-12-29T00:45:45;4.37;;;2.40;;
6517;SDS011;3292;48.944;9.240;2022-12-29T00:48:15;4.83;;;2.50;;
6517;SDS011;3292;48.944;9.240;2022-12-29T00:51:03;3.50;;;2.53;;
6517;SDS011;3292;48.944;9.240;2022-12-29T00:53:33;3.57;;;2.30;;
6517;SDS011;3292;48.944;9.240;2022-12-29T00:56:01;3.27;;;2.40;;
6517;SDS011;3292;48.944;9.240;2022-12-29T00:58:29;3.23;;;2.10;;
6517;SDS011;3292;48.944;9.240;2022-12-29T01:01:00;5.17;;;2.40;;
6517;SDS011;3292;48.944;9.240;2022-12-29T01:03:30;2.53;;;2.33;;
6517;SDS011;3292;48.944;9.240;2022-12-29T01:05:59;2.50;;;2.27;;
6517;SDS011;3292;48.944;9.240;2022-12-29T01:08:28;3.37;;;2.20;;
6517;SDS011;3292;48.944;9.240;2022-12-29T01:10:57;2.80;;;2.40;;
6517;SDS011;3292;48.944;9.240;2022-12-29T01:13:25;2.60;;;2.27;;
6517;SDS011;3292;48.944;9.240;2022-12-29T01:15:53;3.53;;;2.43;;
6517;SDS011;3292;48.944;9.240;2022-12-29T01:18:24;3.43;;;2.37;;
6517;SDS011;3292;48.944;9.240;2022-12-29T01:20:59;2.63;;;2.17;;
6517;SDS011;3292;48.944;9.240;2022-12-29T01:23:28;2.93;;;2.30;;
6517;SDS011;3292;48.944;9.240;2022-12-29T01:25:56;4.07;;;2.23;;
6517;SDS011;3292;48.944;9.240;2022-12-29T01:28:24;3.20;;;2.33;;
6517;SDS011;3292;48.944;9.240;2022-12-29T01:30:59;2.63;;;2.40;;
6517;SDS011;3292;48.944;9.240;2022-12-29T01:33:27;3.53;;;2.33;;
6517;SDS011;3292;48.944;9.240;2022-12-29T01:35:55;2.97;;;2.10;;
6517;SDS011;3292;48.944;9.240;2022-12-29T01:38:29;4.57;;;2.33;;
6517;SDS011;3292;48.944;9.240;2022-12-29T01:40:57;2.70;;;2.10;;
6517;SDS011;3292;48.944;9.240;2022-12-29T01:43:37;2.67;;;2.47;;
6517;SDS011;3292;48.944;9.240;2022-12-29T01:46:07;2.20;;;2.00;;
6517;SDS011;3292;48.944;9.240;2022-12-29T01:48:40;2.50;;;2.17;;
6517;SDS011;3292;48.944;9.240;2022-12-29T01:51:09;2.67;;;2.20;;
6517;SDS011;3292;48.944;9.240;2022-12-29T01:53:36;3.03;;;2.20;;
6517;SDS011;3292;48.944;9.240;2022-12-29T01:56:05;2.80;;;2.37;;
6517;SDS011;3292;48.944;9.240;2022-12-29T01:58:37;3.43;;;1.90;;
6517;SDS011;3292;48.944;9.240;2022-12-29T02:01:07;2.43;;;2.23;;
6517;SDS011;3292;48.944;9.240;2022-12-29T02:03:34;2.37;;;2.10;;
6517;SDS011;3292;48.944;9.240;2022-12-29T02:06:04;3.63;;;2.20;;
6517;SDS011;3292;48.944;9.240;2022-12-29T02:08:39;3.53;;;2.00;;
6517;SDS011;3292;48.944;9.240;2022-12-29T02:11:11;2.60;;;1.90;;
6517;SDS011;3292;48.944;9.240;2022-12-29T02:13:38;2.47;;;2.17;;
6517;SDS011;3292;48.944;9.240;2022-12-29T02:16:09;2.20;;;2.00;;
6517;SDS011;3292;48.944;9.240;2022-12-29T02:18:49;2.43;;;1.93;;
6517;SDS011;3292;48.944;9.240;2022-12-29T02:30:57;3.03;;;2.20;;
6517;SDS011;3292;48.944;9.240;2022-12-29T02:33:34;2.77;;;2.20;;
6517;SDS011;3292;48.944;9.240;2022-12-29T02:36:12;4.67;;;2.30;;
6517;SDS011;3292;48.944;9.240;2022-12-29T02:38:50;2.20;;;2.00;;
6517;SDS011;3292;48.944;9.240;2022-12-29T02:41:27;2.97;;;2.20;;
6517;SDS011;3292;48.944;9.240;2022-12-29T02:43:59;3.53;;;2.43;;
6517;SDS011;3292;48.944;9.240;2022-12-29T02:46:35;3.33;;;2.10;;
6517;SDS011;3292;48.944;9.240;2022-12-29T02:49:06;4.10;;;2.27;;
6517;SDS011;3292;48.944;9.240;2022-12-29T02:51:39;2.17;;;1.90;;
6517;SDS011;3292;48.944;9.240;2022-12-29T02:54:16;5.03;;;2.30;;
6517;SDS011;3292;48.944;9.240;2022-12-29T02:57:01;3.00;;;2.00;;
6517;SDS011;3292;48.944;9.240;2022-12-29T02:59:29;2.40;;;2.20;;
6517;SDS011;3292;48.944;9.240;2022-12-29T03:05:10;3.10;;;2.20;;
6517;SDS011;3292;48.944;9.240;2022-12-29T03:07:45;4.37;;;2.10;;
6517;SDS011;3292;48.944;9.240;2022-12-29T03:10:30;2.80;;;1.97;;
6517;SDS011;3292;48.944;9.240;2022-12-29T03:13:14;2.70;;;2.17;;
6517;SDS011;3292;48.944;9.240;2022-12-29T03:16:12;2.40;;;2.10;;
6517;SDS011;3292;48.944;9.240;2022-12-29T03:18:49;3.97;;;1.93;;
6517;SDS011;3292;48.944;9.240;2022-12-29T03:21:26;2.27;;;2.07;;
6517;SDS011;3292;48.944;9.240;2022-12-29T03:24:11;3.50;;;2.43;;
6517;SDS011;3292;48.944;9.240;2022-12-29T03:26:42;2.67;;;2.10;;
6517;SDS011;3292;48.944;9.240;2022-12-29T03:29:15;3.17;;;2.00;;
6517;SDS011;3292;48.944;9.240;2022-12-29T03:31:46;2.63;;;2.10;;
6517;SDS011;3292;48.944;9.240;2022-12-29T03:34:18;1.90;;;1.80;;
6517;SDS011;3292;48.944;9.240;2022-12-29T03:36:50;4.33;;;2.30;;
6517;SDS011;3292;48.944;9.240;2022-12-29T03:39:38;3.63;;;2.27;;
6517;SDS011;3292;48.944;9.240;2022-12-29T03:42:11;3.00;;;2.20;;
6517;SDS011;3292;48.944;9.240;2022-12-29T03:47:33;3.03;;;2.37;;
6517;SDS011;3292;48.944;9.240;2022-12-29T03:50:02;4.43;;;2.43;;
6517;SDS011;3292;48.944;9.240;2022-12-29T03:52:30;5.27;;;2.30;;
6517;SDS011;3292;48.944;9.240;2022-12-29T03:54:57;2.20;;;2.00;;
6517;SDS011;3292;48.944;9.240;2022-12-29T03:57:24;2.17;;;1.93;;
6517;SDS011;3292;48.944;9.240;2022-12-29T03:59:51;3.27;;;2.23;;
6517;SDS011;3292;48.944;9.240;2022-12-29T04:02:17;6.20;;;2.50;;
6517;SDS011;3292;48.944;9.240;2022-12-29T04:04:44;2.57;;;2.10;;
6517;SDS011;3292;48.944;9.240;2022-12-29T04:07:12;2.57;;;2.10;;
6517;SDS011;3292;48.944;9.240;2022-12-29T04:09:39;2.20;;;1.93;;
6517;SDS011;3292;48.944;9.240;2022-12-29T04:12:06;3.47;;;2.20;;
6517;SDS011;3292;48.944;9.240;2022-12-29T04:14:33;2.23;;;1.90;;
6517;SDS011;3292;48.944;9.240;2022-12-29T04:17:00;2.57;;;2.00;;
6517;SDS011;3292;48.944;9.240;2022-12-29T04:19:27;2.10;;;1.90;;
6517;SDS011;3292;48.944;9.240;2022-12-29T04:21:55;3.13;;;2.03;;
6517;SDS011;3292;48.944;9.240;2022-12-29T04:24:25;2.83;;;2.00;;
6517;SDS011;3292;48.944;9.240;2022-12-29T04:26:53;3.47;;;2.30;;
6517;SDS011;3292;48.944;9.240;2022-12-29T04:29:25;2.13;;;1.93;;
6517;SDS011;3292;48.944;9.240;2022-12-29T04:31:54;3.77;;;2.07;;
6517;SDS011;3292;48.944;9.240;2022-12-29T04:34:22;4.47;;;2.13;;
6517;SDS011;3292;48.944;9.240;2022-12-29T04:36:55;2.50;;;2.10;;
6517;SDS011;3292;48.944;9.240;2022-12-29T04:39:22;2.27;;;2.07;;
6517;SDS011;3292;48.944;9.240;2022-12-29T04:41:52;2.43;;;1.80;;
6517;SDS011;3292;48.944;9.240;2022-12-29T04:44:23;2.30;;;1.80;;
6517;SDS011;3292;48.944;9.240;2022-12-29T04:46:55;4.93;;;1.97;;
6517;SDS011;3292;48.944;9.240;2022-12-29T04:49:23;2.43;;;1.70;;
6517;SDS011;3292;48.944;9.240;2022-12-29T04:51:57;2.63;;;1.90;;
6517;SDS011;3292;48.944;9.240;2022-12-29T04:54:26;2.20;;;2.00;;
6517;SDS011;3292;48.944;9.240;2022-12-29T04:56:54;4.80;;;2.07;;
6517;SDS011;3292;48.944;9.240;2022-12-29T04:59:24;6.80;;;2.00;;
6517;SDS011;3292;48.944;9.240;2022-12-29T05:01:52;1.87;;;1.77;;
6517;SDS011;3292;48.944;9.240;2022-12-29T05:04:19;4.20;;;2.10;;
6517;SDS011;3292;48.944;9.240;2022-12-29T05:06:47;3.67;;;2.30;;
6517;SDS011;3292;48.944;9.240;2022-12-29T05:09:15;2.10;;;1.93;;
6517;SDS011;3292;48.944;9.240;2022-12-29T05:11:44;2.57;;;1.70;;
6517;SDS011;3292;48.944;9.240;2022-12-29T05:14:12;3.10;;;1.80;;
6517;SDS011;3292;48.944;9.240;2022-12-29T05:16:40;2.40;;;2.20;;
6517;SDS011;3292;48.944;9.240;2022-12-29T05:19:08;1.90;;;1.80;;
6517;SDS011;3292;48.944;9.240;2022-12-29T05:21:36;2.27;;;1.90;;
6517;SDS011;3292;48.944;9.240;2022-12-29T05:24:05;2.33;;;1.93;;
6517;SDS011;3292;48.944;9.240;2022-12-29T05:26:33;2.93;;;2.07;;
6517;SDS011;3292;48.944;9.240;2022-12-29T05:29:02;3.93;;;2.00;;
6517;SDS011;3292;48.944;9.240;2022-12-29T05:31:30;2.13;;;1.93;;
6517;SDS011;3292;48.944;9.240;2022-12-29T05:34:01;2.40;;;2.00;;
6517;SDS011;3292;48.944;9.240;2022-12-29T05:36:29;2.90;;;2.03;;
6517;SDS011;3292;48.944;9.240;2022-12-29T05:38:56;2.23;;;1.77;;
6517;SDS011;3292;48.944;9.240;2022-12-29T05:41:24;1.90;;;1.80;;
6517;SDS011;3292;48.944;9.240;2022-12-29T05:43:52;2.53;;;2.00;;
6517;SDS011;3292;48.944;9.240;2022-12-29T05:46:21;2.30;;;2.10;;
6517;SDS011;3292;48.944;9.240;2022-12-29T05:48:57;3.93;;;1.70;;
6517;SDS011;3292;48.944;9.240;2022-12-29T05:51:24;3.97;;;2.10;;
6517;SDS011;3292;48.944;9.240;2022-12-29T05:53:52;2.80;;;1.90;;
6517;SDS011;3292;48.944;9.240;2022-12-29T05:56:20;4.27;;;2.30;;
6517;SDS011;3292;48.944;9.240;2022-12-29T05:58:47;2.70;;;2.30;;
6517;SDS011;3292;48.944;9.240;2022-12-29T06:01:16;2.40;;;2.17;;
6517;SDS011;3292;48.944;9.240;2022-12-29T06:03:46;4.80;;;2.37;;
6517;SDS011;3292;48.944;9.240;2022-12-29T06:06:14;2.23;;;2.00;;
6517;SDS011;3292;48.944;9.240;2022-12-29T06:08:42;2.70;;;2.10;;
6517;SDS011;3292;48.944;9.240;2022-12-29T06:11:09;2.43;;;2.20;;
6517;SDS011;3292;48.944;9.240;2022-12-29T06:13:37;2.70;;;2.00;;
6517;SDS011;3292;48.944;9.240;2022-12-29T06:16:04;2.33;;;2.13;;
6517;SDS011;3292;48.944;9.240;2022-12-29T06:18:33;2.50;;;2.00;;
6517;SDS011;3292;48.944;9.240;2022-12-29T06:21:02;4.70;;;2.50;;
6517;SDS011;3292;48.944;9.240;2022-12-29T06:23:30;2.30;;;2.00;;
6517;SDS011;3292;48.944;9.240;2022-12-29T06:25:58;2.73;;;2.17;;
6517;SDS011;3292;48.944;9.240;2022-12-29T06:28:25;4.03;;;2.27;;
6517;SDS011;3292;48.944;9.240;2022-12-29T06:31:02;2.43;;;2.00;;
6517;SDS011;3292;48.944;9.240;2022-12-29T06:33:30;3.27;;;1.90;;
6517;SDS011;3292;48.944;9.240;2022-12-29T06:35:58;3.33;;;2.00;;
6517;SDS011;3292;48.944;9.240;2022-12-29T06:38:28;4.90;;;2.20;;
6517;SDS011;3292;48.944;9.240;2022-12-29T06:40:57;2.60;;;2.20;;
6517;SDS011;3292;48.944;9.240;2022-12-29T06:43:24;3.50;;;2.27;;
6517;SDS011;3292;48.944;9.240;2022-12-29T06:45:57;2.40;;;2.20;;
6517;SDS011;3292;48.944;9.240;2022-12-29T06:48:25;4.17;;;2.20;;
6517;SDS011;3292;48.944;9.240;2022-12-29T06:50:53;4.57;;;2.20;;
6517;SDS011;3292;48.944;9.240;2022-12-29T06:53:21;3.10;;;2.37;;
6517;SDS011;3292;48.944;9.240;2022-12-29T06:55:51;2.17;;;1.97;;
6517;SDS011;3292;48.944;9.240;2022-12-29T06:58:19;2.40;;;2.20;;
6517;SDS011;3292;48.944;9.240;2022-12-29T07:00:47;2.60;;;2.10;;
6517;SDS011;3292;48.944;9.240;2022-12-29T07:03:21;2.80;;;2.17;;
6517;SDS011;3292;48.944;9.240;2022-12-29T07:05:49;2.50;;;2.30;;
6517;SDS011;3292;48.944;9.240;2022-12-29T07:08:16;2.37;;;1.90;;
6517;SDS011;3292;48.944;9.240;2022-12-29T07:10:45;2.47;;;2.13;;
6517;SDS011;3292;48.944;9.240;2022-12-29T07:13:17;2.57;;;2.33;;
6517;SDS011;3292;48.944;9.240;2022-12-29T07:15:45;2.50;;;2.30;;
6517;SDS011;3292;48.944;9.240;2022-12-29T07:18:12;3.00;;;2.20;;
6517;SDS011;3292;48.944;9.240;2022-12-29T07:20:40;5.63;;;2.47;;
6517;SDS011;3292;48.944;9.240;2022-12-29T07:23:07;2.80;;;2.50;;
6517;SDS011;3292;48.944;9.240;2022-12-29T07:25:34;2.83;;;2.10;;
6517;SDS011;3292;48.944;9.240;2022-12-29T07:28:02;2.83;;;2.40;;
6517;SDS011;3292;48.944;9.240;2022-12-29T07:30:31;2.40;;;2.20;;
6517;SDS011;3292;48.944;9.240;2022-12-29T07:32:59;3.87;;;2.10;;
6517;SDS011;3292;48.944;9.240;2022-12-29T07:35:26;2.47;;;2.20;;
6517;SDS011;3292;48.944;9.240;2022-12-29T07:37:54;4.03;;;2.37;;
6517;SDS011;3292;48.944;9.240;2022-12-29T07:40:21;3.27;;;2.17;;
6517;SDS011;3292;48.944;9.240;2022-12-29T07:42:50;3.43;;;2.07;;
6517;SDS011;3292;48.944;9.240;2022-12-29T07:45:20;2.40;;;2.20;;
6517;SDS011;3292;48.944;9.240;2022-12-29T07:47:49;2.60;;;2.13;;
6517;SDS011;3292;48.944;9.240;2022-12-29T07:50:21;3.57;;;1.97;;
6517;SDS011;3292;48.944;9.240;2022-12-29T07:52:58;2.73;;;2.00;;
6517;SDS011;3292;48.944;9.240;2022-12-29T07:55:26;2.03;;;1.83;;
6517;SDS011;3292;48.944;9.240;2022-12-29T07:57:54;2.13;;;1.93;;
6517;SDS011;3292;48.944;9.240;2022-12-29T08:00:24;3.20;;;2.10;;
6517;SDS011;3292;48.944;9.240;2022-12-29T08:02:53;5.07;;;2.10;;
6517;SDS011;3292;48.944;9.240;2022-12-29T08:05:28;3.90;;;2.37;;
6517;SDS011;3292;48.944;9.240;2022-12-29T08:07:57;2.60;;;2.00;;
6517;SDS011;3292;48.944;9.240;2022-12-29T08:10:25;2.60;;;2.00;;
6517;SDS011;3292;48.944;9.240;2022-12-29T08:12:53;2.57;;;2.20;;
6517;SDS011;3292;48.944;9.240;2022-12-29T08:15:27;2.77;;;2.20;;
6517;SDS011;3292;48.944;9.240;2022-12-29T08:18:06;2.87;;;2.10;;
6517;SDS011;3292;48.944;9.240;2022-12-29T08:20:37;2.87;;;1.97;;
6517;SDS011;3292;48.944;9.240;2022-12-29T08:23:05;2.50;;;1.80;;
6517;SDS011;3292;48.944;9.240;2022-12-29T08:25:34;3.67;;;2.30;;
6517;SDS011;3292;48.944;9.240;2022-12-29T08:28:02;2.23;;;2.00;;
6517;SDS011;3292;48.944;9.240;2022-12-29T08:30:30;2.50;;;2.00;;
6517;SDS011;3292;48.944;9.240;2022-12-29T08:32:59;3.40;;;2.33;;
6517;SDS011;3292;48.944;9.240;2022-12-29T08:35:29;3.77;;;2.50;;
6517;SDS011;3292;48.944;9.240;2022-12-29T08:37:57;2.43;;;2.23;;
6517;SDS011;3292;48.944;9.240;2022-12-29T08:40:25;2.00;;;1.90;;
6517;SDS011;3292;48.944;9.240;2022-12-29T08:42:59;3.53;;;2.83;;
6517;SDS011;3292;48.944;9.240;2022-12-29T08:45:27;5.13;;;2.10;;
6517;SDS011;3292;48.944;9.240;2022-12-29T08:47:55;3.17;;;2.20;;
6517;SDS011;3292;48.944;9.240;2022-12-29T08:50:29;2.67;;;2.20;;
6517;SDS011;3292;48.944;9.240;2022-12-29T08:52:57;2.93;;;2.10;;
6517;SDS011;3292;48.944;9.240;2022-12-29T08:55:26;2.33;;;2.10;;
6517;SDS011;3292;48.944;9.240;2022-12-29T08:58:03;3.63;;;1.80;;
6517;SDS011;3292;48.944;9.240;2022-12-29T09:00:32;2.43;;;1.83;;
6517;SDS011;3292;48.944;9.240;2022-12-29T09:03:00;4.20;;;2.30;;
6517;SDS011;3292;48.944;9.240;2022-12-29T09:05:32;2.43;;;2.07;;
6517;SDS011;3292;48.944;9.240;2022-12-29T09:07:59;4.33;;;2.30;;
6517;SDS011;3292;48.944;9.240;2022-12-29T09:10:25;3.13;;;1.83;;
6517;SDS011;3292;48.944;9.240;2022-12-29T09:12:52;4.50;;;2.20;;
6517;SDS011;3292;48.944;9.240;2022-12-29T09:15:19;4.10;;;1.80;;
6517;SDS011;3292;48.944;9.240;2022-12-29T09:17:46;2.87;;;2.30;;
6517;SDS011;3292;48.944;9.240;2022-12-29T09:20:13;2.90;;;2.27;;
6517;SDS011;3292;48.944;9.240;2022-12-29T09:22:43;3.07;;;2.07;;
6517;SDS011;3292;48.944;9.240;2022-12-29T09:25:10;3.23;;;1.80;;
6517;SDS011;3292;48.944;9.240;2022-12-29T09:27:38;4.43;;;2.10;;
6517;SDS011;3292;48.944;9.240;2022-12-29T09:30:06;2.73;;;1.80;;
6517;SDS011;3292;48.944;9.240;2022-12-29T09:32:35;3.63;;;2.00;;
6517;SDS011;3292;48.944;9.240;2022-12-29T09:35:04;3.07;;;2.03;;
6517;SDS011;3292;48.944;9.240;2022-12-29T09:37:31;3.50;;;2.20;;
6517;SDS011;3292;48.944;9.240;2022-12-29T09:39:59;6.87;;;2.70;;
6517;SDS011;3292;48.944;9.240;2022-12-29T09:42:27;2.60;;;2.20;;
6517;SDS011;3292;48.944;9.240;2022-12-29T09:45:04;4.30;;;2.23;;
6517;SDS011;3292;48.944;9.240;2022-12-29T09:47:38;2.47;;;2.27;;
6517;SDS011;3292;48.944;9.240;2022-12-29T09:50:08;2.70;;;2.23;;
6517;SDS011;3292;48.944;9.240;2022-12-29T09:52:40;2.10;;;1.90;;
6517;SDS011;3292;48.944;9.240;2022-12-29T09:55:17;3.77;;;2.20;;
6517;SDS011;3292;48.944;9.240;2022-12-29T09:57:47;3.40;;;1.90;;
6517;SDS011;3292;48.944;9.240;2022-12-29T10:00:19;2.03;;;1.90;;
6517;SDS011;3292;48.944;9.240;2022-12-29T10:02:49;3.03;;;2.30;;
6517;SDS011;3292;48.944;9.240;2022-12-29T10:05:20;2.30;;;2.10;;
6517;SDS011;3292;48.944;9.240;2022-12-29T10:07:58;2.23;;;2.00;;
6517;SDS011;3292;48.944;9.240;2022-12-29T10:10:38;2.40;;;2.07;;
6517;SDS011;3292;48.944;9.240;2022-12-29T10:13:18;3.57;;;2.67;;
6517;SDS011;3292;48.944;9.240;2022-12-29T10:15:54;3.10;;;2.57;;
6517;SDS011;3292;48.944;9.240;2022-12-29T10:18:43;3.23;;;2.50;;
6517;SDS011;3292;48.944;9.240;2022-12-29T10:21:39;3.87;;;2.30;;
6517;SDS011;3292;48.944;9.240;2022-12-29T10:24:18;3.23;;;2.20;;
6517;SDS011;3292;48.944;9.240;2022-12-29T10:26:49;5.17;;;2.13;;
6517;SDS011;3292;48.944;9.240;2022-12-29T10:29:18;2.63;;;2.13;;
6517;SDS011;3292;48.944;9.240;2022-12-29T10:31:47;3.27;;;2.23;;
6517;SDS011;3292;48.944;9.240;2022-12-29T10:34:19;2.27;;;1.90;;
6517;SDS011;3292;48.944;9.240;2022-12-29T10:36:49;2.37;;;2.00;;
6517;SDS011;3292;48.944;9.240;2022-12-29T10:39:22;3.00;;;1.70;;
6517;SDS011;3292;48.944;9.240;2022-12-29T10:41:57;2.40;;;1.83;;
6517;SDS011;3292;48.944;9.240;2022-12-29T10:44:31;1.93;;;1.83;;
6517;SDS011;3292;48.944;9.240;2022-12-29T10:47:00;2.00;;;1.80;;
6517;SDS011;3292;48.944;9.240;2022-12-29T10:49:31;3.07;;;1.90;;
6517;SDS011;3292;48.944;9.240;2022-12-29T10:52:03;2.43;;;1.80;;
6517;SDS011;3292;48.944;9.240;2022-12-29T10:54:32;2.57;;;2.00;;
6517;SDS011;3292;48.944;9.240;2022-12-29T10:57:07;1.70;;;1.60;;
6517;SDS011;3292;48.944;9.240;2022-12-29T10:59:37;2.27;;;1.80;;
6517;SDS011;3292;48.944;9.240;2022-12-29T11:02:13;2.03;;;1.83;;
6517;SDS011;3292;48.944;9.240;2022-12-29T11:04:52;1.87;;;1.70;;
6517;SDS011;3292;48.944;9.240;2022-12-29T11:07:27;2.63;;;1.73;;
6517;SDS011;3292;48.944;9.240;2022-12-29T11:09:55;1.90;;;1.77;;
6517;SDS011;3292;48.944;9.240;2022-12-29T11:12:42;1.97;;;1.87;;
6517;SDS011;3292;48.944;9.240;2022-12-29T11:15:21;2.47;;;1.80;;
6517;SDS011;3292;48.944;9.240;2022-12-29T11:17:51;1.93;;;1.83;;
6517;SDS011;3292;48.944;9.240;2022-12-29T11:20:30;1.80;;;1.70;;
6517;SDS011;3292;48.944;9.240;2022-12-29T11:22:59;2.00;;;1.80;;
6517;SDS011;3292;48.944;9.240;2022-12-29T11:25:26;2.23;;;1.90;;
6517;SDS011;3292;48.944;9.240;2022-12-29T11:27:58;4.00;;;2.10;;
6517;SDS011;3292;48.944;9.240;2022-12-29T11:30:28;2.20;;;1.80;;
6517;SDS011;3292;48.944;9.240;2022-12-29T11:32:56;2.43;;;2.23;;
6517;SDS011;3292;48.944;9.240;2022-12-29T11:35:31;2.00;;;1.90;;
6517;SDS011;3292;48.944;9.240;2022-12-29T11:38:00;2.47;;;2.10;;
6517;SDS011;3292;48.944;9.240;2022-12-29T11:40:28;5.57;;;2.37;;
6517;SDS011;3292;48.944;9.240;2022-12-29T11:42:58;3.10;;;1.97;;
6517;SDS011;3292;48.944;9.240;2022-12-29T11:45:29;2.00;;;1.87;;
6517;SDS011;3292;48.944;9.240;2022-12-29T11:47:58;2.00;;;1.80;;
6517;SDS011;3292;48.944;9.240;2022-12-29T11:50:31;2.97;;;1.80;;
6517;SDS011;3292;48.944;9.240;2022-12-29T11:53:01;2.53;;;1.77;;
6517;SDS011;3292;48.944;9.240;2022-12-29T11:55:31;2.97;;;1.80;;
6517;SDS011;3292;48.944;9.240;2022-12-29T11:58:00;2.43;;;1.90;;
6517;SDS011;3292;48.944;9.240;2022-12-29T12:00:30;4.03;;;2.10;;
6517;SDS011;3292;48.944;9.240;2022-12-29T12:03:00;2.10;;;2.00;;
6517;SDS011;3292;48.944;9.240;2022-12-29T12:05:33;2.20;;;2.00;;
6517;SDS011;3292;48.944;9.240;2022-12-29T12:08:09;2.17;;;1.97;;
6517;SDS011;3292;48.944;9.240;2022-12-29T12:10:39;2.00;;;1.90;;
6517;SDS011;3292;48.944;9.240;2022-12-29T12:13:22;1.87;;;1.67;;
6517;SDS011;3292;48.944;9.240;2022-12-29T12:15:54;2.13;;;1.70;;
6517;SDS011;3292;48.944;9.240;2022-12-29T12:18:31;1.80;;;1.70;;
6517;SDS011;3292;48.944;9.240;2022-12-29T12:21:05;1.50;;;1.40;;
6517;SDS011;3292;48.944;9.240;2022-12-29T12:23:38;2.07;;;1.87;;
6517;SDS011;3292;48.944;9.240;2022-12-29T12:26:18;2.07;;;1.60;;
6517;SDS011;3292;48.944;9.240;2022-12-29T12:28:51;2.23;;;1.50;;
6517;SDS011;3292;48.944;9.240;2022-12-29T12:31:25;2.00;;;1.47;;
6517;SDS011;3292;48.944;9.240;2022-12-29T12:34:05;1.73;;;1.63;;
6517;SDS011;3292;48.944;9.240;2022-12-29T12:36:49;2.17;;;1.50;;
6517;SDS011;3292;48.944;9.240;2022-12-29T12:39:27;1.60;;;1.50;;
6517;SDS011;3292;48.944;9.240;2022-12-29T12:42:06;1.70;;;1.60;;
6517;SDS011;3292;48.944;9.240;2022-12-29T12:44:46;1.83;;;1.33;;
6517;SDS011;3292;48.944;9.240;2022-12-29T12:47:39;1.63;;;1.53;;
6517;SDS011;3292;48.944;9.240;2022-12-29T12:53:16;2.03;;;1.87;;
6517;SDS011;3292;48.944;9.240;2022-12-29T12:58:52;1.60;;;1.50;;
6517;SDS011;3292;48.944;9.240;2022-12-29T13:01:28;2.03;;;1.60;;
6517;SDS011;3292;48.944;9.240;2022-12-29T13:04:05;1.70;;;1.50;;
6517;SDS011;3292;48.944;9.240;2022-12-29T13:06:48;1.70;;;1.60;;
6517;SDS011;3292;48.944;9.240;2022-12-29T13:09:26;2.07;;;1.60;;
6517;SDS011;3292;48.944;9.240;2022-12-29T13:12:03;1.77;;;1.67;;
6517;SDS011;3292;48.944;9.240;2022-12-29T13:14:42;2.37;;;1.90;;
6517;SDS011;3292;48.944;9.240;2022-12-29T13:17:22;1.87;;;1.77;;
6517;SDS011;3292;48.944;9.240;2022-12-29T13:19:57;3.33;;;2.20;;
6517;SDS011;3292;48.944;9.240;2022-12-29T13:22:36;1.87;;;1.70;;
6517;SDS011;3292;48.944;9.240;2022-12-29T13:25:21;3.00;;;1.80;;
6517;SDS011;3292;48.944;9.240;2022-12-29T13:27:55;6.83;;;4.63;;
6517;SDS011;3292;48.944;9.240;2022-12-29T13:30:28;2.73;;;2.07;;
6517;SDS011;3292;48.944;9.240;2022-12-29T13:33:02;5.53;;;3.80;;
6517;SDS011;3292;48.944;9.240;2022-12-29T13:35:41;3.47;;;2.97;;
6517;SDS011;3292;48.944;9.240;2022-12-29T13:38:18;4.23;;;2.70;;
6517;SDS011;3292;48.944;9.240;2022-12-29T13:40:50;2.93;;;2.30;;
6517;SDS011;3292;48.944;9.240;2022-12-29T13:43:21;2.80;;;2.23;;
6517;SDS011;3292;48.944;9.240;2022-12-29T13:45:52;6.00;;;2.30;;
6517;SDS011;3292;48.944;9.240;2022-12-29T13:48:25;5.23;;;2.40;;
6517;SDS011;3292;48.944;9.240;2022-12-29T13:51:01;2.70;;;2.50;;
6517;SDS011;3292;48.944;9.240;2022-12-29T13:53:30;2.30;;;2.10;;
6517;SDS011;3292;48.944;9.240;2022-12-29T13:56:06;2.90;;;2.40;;
6517;SDS011;3292;48.944;9.240;2022-12-29T13:58:39;5.63;;;2.13;;
6517;SDS011;3292;48.944;9.240;2022-12-29T14:01:15;2.33;;;2.00;;
6517;SDS011;3292;48.944;9.240;2022-12-29T14:03:48;3.17;;;2.20;;
6517;SDS011;3292;48.944;9.240;2022-12-29T14:06:20;2.60;;;2.40;;
6517;SDS011;3292;48.944;9.240;2022-12-29T14:08:49;2.50;;;2.30;;
6517;SDS011;3292;48.944;9.240;2022-12-29T14:11:20;3.10;;;2.30;;
6517;SDS011;3292;48.944;9.240;2022-12-29T14:13:50;1.90;;;1.80;;
6517;SDS011;3292;48.944;9.240;2022-12-29T14:16:24;2.50;;;2.30;;
6517;SDS011;3292;48.944;9.240;2022-12-29T14:19:03;2.93;;;2.23;;
6517;SDS011;3292;48.944;9.240;2022-12-29T14:21:37;3.70;;;2.30;;
6517;SDS011;3292;48.944;9.240;2022-12-29T14:26:54;2.57;;;2.33;;
6517;SDS011;3292;48.944;9.240;2022-12-29T14:38:06;4.53;;;2.57;;
6517;SDS011;3292;48.944;9.240;2022-12-29T14:40:40;2.40;;;2.20;;
6517;SDS011;3292;48.944;9.240;2022-12-29T14:43:11;3.03;;;2.20;;
6517;SDS011;3292;48.944;9.240;2022-12-29T14:45:41;2.77;;;2.30;;
6517;SDS011;3292;48.944;9.240;2022-12-29T14:48:30;2.63;;;2.43;;
6517;SDS011;3292;48.944;9.240;2022-12-29T14:51:18;2.50;;;2.30;;
6517;SDS011;3292;48.944;9.240;2022-12-29T14:53:52;2.60;;;2.40;;
6517;SDS011;3292;48.944;9.240;2022-12-29T14:56:20;3.30;;;2.90;;
6517;SDS011;3292;48.944;9.240;2022-12-29T14:58:53;2.60;;;2.40;;
6517;SDS011;3292;48.944;9.240;2022-12-29T15:01:24;4.07;;;2.40;;
6517;SDS011;3292;48.944;9.240;2022-12-29T15:04:04;2.90;;;2.27;;
6517;SDS011;3292;48.944;9.240;2022-12-29T15:06:41;3.23;;;2.20;;
6517;SDS011;3292;48.944;9.240;2022-12-29T15:09:14;3.60;;;2.30;;
6517;SDS011;3292;48.944;9.240;2022-12-29T15:11:51;2.90;;;2.33;;
6517;SDS011;3292;48.944;9.240;2022-12-29T15:14:27;2.37;;;2.13;;
6517;SDS011;3292;48.944;9.240;2022-12-29T15:17:09;3.77;;;2.20;;
6517;SDS011;3292;48.944;9.240;2022-12-29T15:19:48;2.37;;;2.00;;
6517;SDS011;3292;48.944;9.240;2022-12-29T15:22:17;2.70;;;2.10;;
6517;SDS011;3292;48.944;9.240;2022-12-29T15:24:45;3.07;;;2.20;;
6517;SDS011;3292;48.944;9.240;2022-12-29T15:27:22;2.67;;;2.27;;
6517;SDS011;3292;48.944;9.240;2022-12-29T15:29:56;2.50;;;2.30;;
6517;SDS011;3292;48.944;9.240;2022-12-29T15:32:27;3.63;;;2.20;;
6517;SDS011;3292;48.944;9.240;2022-12-29T15:34:57;3.67;;;2.83;;
6517;SDS011;3292;48.944;9.240;2022-12-29T15:37:32;7.93;;;3.20;;
6517;SDS011;3292;48.944;9.240;2022-12-29T15:40:02;5.40;;;2.50;;
6517;SDS011;3292;48.944;9.240;2022-12-29T15:42:34;3.10;;;2.10;;
6517;SDS011;3292;48.944;9.240;2022-12-29T15:45:18;2.33;;;2.10;;
6517;SDS011;3292;48.944;9.240;2022-12-29T15:47:46;2.77;;;1.97;;
6517;SDS011;3292;48.944;9.240;2022-12-29T15:50:23;5.37;;;3.70;;
6517;SDS011;3292;48.944;9.240;2022-12-29T15:52:54;3.80;;;2.70;;
6517;SDS011;3292;48.944;9.240;2022-12-29T15:55:24;3.67;;;2.43;;
6517;SDS011;3292;48.944;9.240;2022-12-29T15:57:56;8.17;;;5.50;;
6517;SDS011;3292;48.944;9.240;2022-12-29T16:00:27;9.30;;;7.53;;
6517;SDS011;3292;48.944;9.240;2022-12-29T16:02:57;9.63;;;8.63;;
6517;SDS011;3292;48.944;9.240;2022-12-29T16:05:33;4.60;;;4.17;;
6517;SDS011;3292;48.944;9.240;2022-12-29T16:08:18;6.00;;;5.43;;
6517;SDS011;3292;48.944;9.240;2022-12-29T16:10:49;11.53;;;10.37;;
6517;SDS011;3292;48.944;9.240;2022-12-29T16:13:19;4.50;;;4.07;;
6517;SDS011;3292;48.944;9.240;2022-12-29T16:15:54;12.33;;;8.20;;
6517;SDS011;3292;48.944;9.240;2022-12-29T16:18:26;17.77;;;11.20;;